Time;durP1;ratioP1;P1;durP2;ratioP2;P2;SDS_P1;SDS_P2;PMS_P1;PMS_P2;Temp;Humidity;BMP_temperature;BMP_pressure;BME280_temperature;BME280_humidity;BME280_pressure;Samples;Min_cycle;Max_cycle;Signal;HPM_P1;HPM_P2
2022/09/25 00:09:32;;;;;;;24.77;17.17;;;;;;;7.48;72.78;99882.22;30626364;28;97237;-73
2022/09/25 00:24:33;;;;;;;27.90;18.67;;;;;;;7.37;73.62;99874.56;30625548;28;96722;-67
2022/09/25 00:39:34;;;;;;;28.00;17.50;;;;;;;7.24;73.88;99877.59;30624911;28;96637;-70
2022/09/25 00:54:40;;;;;;;28.98;18.08;;;;;;;7.21;74.53;99867.31;30623278;28;97456;-69
2022/09/25 01:09:41;;;;;;;27.53;18.80;;;;;;;7.21;74.87;99854.06;30622200;28;97491;-72
2022/09/25 01:25:01;;;;;;;33.63;18.90;;;;;;;7.24;75.01;99865.16;30620438;28;96627;-71
2022/09/25 01:40:13;;;;;;;25.75;15.93;;;;;;;7.21;75.33;99854.06;30620052;28;96916;-71
2022/09/25 01:55:20;;;;;;;23.30;16.43;;;;;;;7.18;75.60;99857.03;30617202;28;99594;-71
2022/09/25 02:10:28;;;;;;;23.77;16.23;;;;;;;6.91;75.55;99856.19;30616189;28;96850;-70
2022/09/25 02:25:37;;;;;;;23.77;16.23;;;;;;;6.80;76.03;99867.03;30614533;28;96937;-64
2022/09/25 02:40:55;;;;;;;21.67;15.48;;;;;;;6.75;75.96;99854.25;30613576;28;96647;-66
2022/09/25 02:56:19;;;;;;;22.50;14.05;;;;;;;6.63;76.25;99853.69;30612639;28;97239;-72
2022/09/25 03:11:20;;;;;;;18.30;13.53;;;;;;;6.54;76.32;99838.72;30610444;28;96760;-70
2022/09/25 03:26:21;;;;;;;19.15;14.27;;;;;;;6.40;77.28;99838.25;30609534;28;97093;-69
2022/09/25 03:41:22;;;;;;;28.57;14.90;;;;;;;6.24;77.10;99824.88;30618580;28;96846;-64
2022/09/25 03:56:25;;;;;;;23.87;14.63;;;;;;;6.18;77.17;99833.41;30628639;28;96613;-68
2022/09/25 04:11:25;;;;;;;22.00;15.10;;;;;;;6.04;77.51;99825.03;30626738;28;96854;-69
2022/09/25 04:26:26;;;;;;;24.25;15.35;;;;;;;5.94;77.69;99824.22;30625154;28;104800;-70
2022/09/25 04:41:26;;;;;;;23.02;15.43;;;;;;;5.86;78.14;99826.78;30622807;28;112917;-69
2022/09/25 04:56:26;;;;;;;24.05;16.23;;;;;;;5.82;78.45;99833.34;30621535;28;97126;-69
2022/09/25 05:11:27;;;;;;;25.70;15.05;;;;;;;5.78;78.64;99830.16;30619417;28;109604;-69
2022/09/25 05:26:29;;;;;;;27.40;15.77;;;;;;;5.89;78.87;99832.63;30617710;28;97344;-71
2022/09/25 05:41:30;;;;;;;25.38;15.55;;;;;;;6.66;79.25;99839.31;30616642;28;96746;-71
2022/09/25 05:56:30;;;;;;;21.03;13.57;;;;;;;7.91;79.71;99839.78;30615107;28;97172;-70
2022/09/25 06:11:30;;;;;;;21.77;13.55;;;;;;;9.40;78.94;99830.81;30613322;28;96746;-71
2022/09/25 06:26:32;;;;;;;19.65;13.00;;;;;;;11.08;77.04;99840.03;30613244;28;96728;-71
2022/09/25 06:41:32;;;;;;;16.73;12.70;;;;;;;12.27;75.14;99824.94;30610669;28;96741;-65
2022/09/25 06:56:33;;;;;;;18.98;13.00;;;;;;;13.59;72.12;99823.44;30610604;28;100023;-70
2022/09/25 07:11:34;;;;;;;19.80;13.65;;;;;;;14.25;70.11;99835.41;30611872;28;115829;-66
2022/09/25 07:26:34;;;;;;;13.18;10.93;;;;;;;15.51;67.96;99833.72;30629842;28;96585;-66
2022/09/25 07:41:36;;;;;;;14.82;10.63;;;;;;;17.15;64.52;99826.91;30628097;28;96592;-67
2022/09/25 07:56:37;;;;;;;14.30;8.83;;;;;;;18.96;60.90;99829.06;30627390;28;97204;-69
2022/09/25 08:11:37;;;;;;;11.38;7.97;;;;;;;20.45;57.49;99830.22;30625559;28;98531;-67
2022/09/25 08:26:37;;;;;;;11.23;7.10;;;;;;;22.67;51.58;99802.38;30623265;28;96630;-68
2022/09/25 08:41:47;;;;;;;6.97;4.17;;;;;;;24.41;45.06;99796.03;30620802;28;104178;-65
2022/09/25 08:56:51;;;;;;;7.00;4.70;;;;;;;35.77;27.67;99781.41;30622272;28;97456;-63
2022/09/25 09:12:02;;;;;;;6.70;4.17;;;;;;;41.14;18.50;99779.47;30618182;28;97094;-65
2022/09/25 09:27:33;;;;;;;4.60;3.40;;;;;;;44.54;14.01;99762.25;30618738;28;97389;-66
2022/09/25 09:43:02;;;;;;;4.13;3.07;;;;;;;44.78;12.45;99749.25;30615729;28;96855;-65
2022/09/25 09:58:10;;;;;;;3.90;2.60;;;;;;;46.96;11.29;99748.75;30616545;28;96695;-66
2022/09/25 10:13:19;;;;;;;4.00;2.47;;;;;;;46.79;10.12;99739.41;30612924;28;97454;-66
2022/09/25 10:28:26;;;;;;;4.30;2.67;;;;;;;46.48;9.72;99718.19;30612335;28;97572;-64
2022/09/25 10:43:26;;;;;;;10.33;2.53;;;;;;;47.74;8.96;99707.34;30611134;28;97605;-65
2022/09/25 10:58:35;;;;;;;3.30;2.17;;;;;;;48.38;8.56;99690.91;30610041;28;96927;-65
2022/09/25 11:13:47;;;;;;;8.50;3.20;;;;;;;48.79;8.23;99675.31;30608482;28;96871;-63
2022/09/25 11:29:02;;;;;;;3.83;2.40;;;;;;;48.92;8.00;99666.88;30607515;28;97458;-63
2022/09/25 11:44:20;;;;;;;2.87;1.93;;;;;;;49.00;8.06;99656.19;30607172;28;97461;-62
2022/09/25 11:59:38;;;;;;;3.87;2.10;;;;;;;49.59;7.40;99647.56;30610507;28;97428;-63
2022/09/25 12:14:59;;;;;;;3.53;2.20;;;;;;;47.23;8.58;99631.44;30625313;28;96667;-63
2022/09/25 12:30:20;;;;;;;3.47;1.90;;;;;;;48.39;7.95;99613.41;30624400;28;97363;-62
2022/09/25 12:45:30;;;;;;;2.77;1.77;;;;;;;48.60;7.86;99603.59;30622392;28;96765;-66
2022/09/25 13:00:35;;;;;;;2.57;1.93;;;;;;;48.90;7.78;99604.38;30622443;28;97179;-66
2022/09/25 13:15:38;;;;;;;3.17;1.70;;;;;;;46.35;8.78;99599.75;30618267;28;99556;-63
2022/09/25 13:30:39;;;;;;;3.10;2.00;;;;;;;41.69;11.55;99583.69;30616975;28;96758;-67
2022/09/25 13:45:40;;;;;;;4.07;2.35;;;;;;;38.27;13.51;99559.13;30614938;28;96685;-63
2022/09/25 14:00:46;;;;;;;6.43;2.90;;;;;;;33.93;16.96;99546.78;30614926;28;96819;-65
2022/09/25 14:15:46;;;;;;;4.70;2.30;;;;;;;29.02;21.10;99550.09;30613746;28;96771;-66
2022/09/25 14:31:06;;;;;;;6.00;2.95;;;;;;;26.38;24.12;99532.97;30611854;28;96643;-67
2022/09/25 14:46:18;;;;;;;7.13;2.83;;;;;;;24.09;26.95;99533.19;30612107;28;96809;-67
2022/09/25 15:01:29;;;;;;;4.33;2.90;;;;;;;22.23;29.94;99516.59;30611100;28;96715;-66
2022/09/25 15:31:51;;;;;;;6.30;3.33;;;;;;;21.35;32.70;99498.09;30607996;28;96734;-68
2022/09/25 15:46:51;;;;;;;4.33;3.30;;;;;;;20.36;34.77;99482.75;30626997;28;96790;-65
2022/09/25 16:17:41;;;;;;;7.00;3.77;;;;;;;19.18;39.32;99491.84;30625174;28;96732;-65
2022/09/25 16:32:48;;;;;;;6.90;3.93;;;;;;;18.66;41.04;99479.25;30624341;28;97101;-69
2022/09/25 16:47:51;;;;;;;14.07;4.47;;;;;;;18.13;43.13;99494.69;30620759;28;96835;-67
2022/09/25 17:02:52;;;;;;;7.27;4.23;;;;;;;17.56;44.99;99486.13;30620443;28;97488;-65
2022/09/25 17:17:54;;;;;;;7.85;4.65;;;;;;;17.20;46.16;99479.88;30618733;28;96877;-68
2022/09/25 17:32:54;;;;;;;13.93;8.33;;;;;;;16.92;47.72;99483.19;30617525;28;97052;-69
2022/09/25 17:47:55;;;;;;;14.38;8.90;;;;;;;16.77;48.74;99483.56;30616205;28;96605;-69
2022/09/25 18:02:55;;;;;;;20.17;12.55;;;;;;;16.26;50.04;99474.91;30614709;28;98646;-71
2022/09/25 18:17:56;;;;;;;15.82;9.73;;;;;;;15.80;51.37;99479.78;30611620;28;111794;-68
2022/09/25 18:32:56;;;;;;;13.55;9.20;;;;;;;15.35;52.89;99477.22;30611403;28;96919;-62
2022/09/25 18:47:57;;;;;;;17.23;9.23;;;;;;;15.38;54.00;99484.88;30610940;28;100292;-67
2022/09/25 19:02:58;;;;;;;13.18;9.10;;;;;;;15.02;55.77;99497.09;30610205;28;96579;-72
2022/09/25 19:17:59;;;;;;;16.67;11.17;;;;;;;15.01;57.11;99480.19;30627130;28;97458;-67
2022/09/25 19:33:00;;;;;;;19.33;11.93;;;;;;;14.83;57.91;99472.88;30628819;28;97587;-70
2022/09/25 19:48:00;;;;;;;18.58;12.55;;;;;;;14.66;59.50;99482.47;30626285;28;96675;-71
2022/09/25 20:03:01;;;;;;;16.80;12.00;;;;;;;14.55;60.90;99479.38;30626510;28;97677;-71
2022/09/25 20:18:02;;;;;;;17.52;11.85;;;;;;;14.58;61.81;99470.09;30622264;28;111577;-71
2022/09/25 20:33:03;;;;;;;15.63;12.60;;;;;;;14.56;62.48;99474.84;30622419;28;97525;-72
2022/09/25 20:48:03;;;;;;;16.90;13.50;;;;;;;14.37;63.46;99444.44;30621885;28;97506;-72
2022/09/25 21:03:04;;;;;;;16.92;13.23;;;;;;;13.80;65.10;99446.88;30619284;28;108304;-72
2022/09/25 21:18:05;;;;;;;18.63;14.00;;;;;;;13.61;66.08;99424.47;30620192;28;96737;-70
2022/09/25 21:33:05;;;;;;;22.38;15.73;;;;;;;13.20;67.78;99416.50;30619261;28;97306;-73
2022/09/25 21:48:06;;;;;;;23.63;16.30;;;;;;;12.98;69.38;99415.84;30618467;28;96688;-71
2022/09/25 22:03:08;;;;;;;26.88;17.80;;;;;;;13.14;69.88;99401.25;30617561;28;96711;-66
2022/09/25 22:18:08;;;;;;;21.83;16.77;;;;;;;13.11;70.38;99385.63;30617584;28;96728;-65
2022/09/25 22:33:08;;;;;;;25.23;16.65;;;;;;;12.80;71.25;99386.25;30614547;28;101689;-66
2022/09/25 22:48:08;;;;;;;23.98;17.80;;;;;;;12.66;71.87;99382.75;30611783;28;108555;-71
2022/09/25 23:03:10;;;;;;;23.10;16.95;;;;;;;12.37;73.02;99382.06;30612047;28;108176;-66
2022/09/25 23:18:10;;;;;;;27.97;18.23;;;;;;;11.84;73.64;99370.13;30611166;28;96786;-66
2022/09/25 23:33:10;;;;;;;24.17;17.15;;;;;;;11.50;74.50;99358.47;30610720;28;97406;-72
2022/09/25 23:48:11;;;;;;;25.75;18.30;;;;;;;11.34;74.75;99351.63;30608157;28;118421;-68
